Time;durP1;ratioP1;P1;durP2;ratioP2;P2;SDS_P1;SDS_P2;PMS_P1;PMS_P2;Temp;Humidity;BMP_temperature;BMP_pressure;BME280_temperature;BME280_humidity;BME280_pressure;Samples;Min_cycle;Max_cycle;Signal;HPM_P1;HPM_P2
2021/12/13 00:02:26;;;;;;;62.30;23.93;;;;;10.00;101844.00;;;;4990371;28;20231;-73
2021/12/13 00:05:16;;;;;;;63.63;23.37;;;;;10.00;101851.00;;;;4994457;28;20247;-72
2021/12/13 00:08:06;;;;;;;76.33;25.90;;;;;10.10;101847.00;;;;4995344;28;20252;-72
2021/12/13 00:10:59;;;;;;;64.00;23.90;;;;;10.00;101850.00;;;;5000750;28;20741;-72
2021/12/13 00:13:48;;;;;;;64.57;24.50;;;;;10.10;101846.00;;;;4998096;28;20237;-71
2021/12/13 00:16:37;;;;;;;64.77;23.07;;;;;10.00;101847.00;;;;4998506;28;20229;-72
2021/12/13 00:19:31;;;;;;;66.63;24.23;;;;;9.90;101856.00;;;;5000329;28;20263;-72
2021/12/13 00:22:21;;;;;;;56.27;21.60;;;;;9.90;101857.00;;;;4993762;28;20300;-72
2021/12/13 00:25:12;;;;;;;52.97;22.93;;;;;10.00;101860.00;;;;5005327;28;20237;-72
2021/12/13 00:28:07;;;;;;;62.43;21.17;;;;;10.00;101854.00;;;;5003155;28;20717;-73
2021/12/13 00:31:01;;;;;;;57.33;21.83;;;;;10.00;101858.00;;;;5006628;28;20261;-73
2021/12/13 00:34:01;;;;;;;53.43;21.07;;;;;9.90;101856.00;;;;5005578;28;20621;-71
2021/12/13 00:36:51;;;;;;;52.23;20.20;;;;;9.90;101851.00;;;;4994132;28;20284;-73
2021/12/13 00:39:45;;;;;;;53.33;20.23;;;;;9.90;101853.00;;;;5016606;28;20244;-71
2021/12/13 00:42:36;;;;;;;55.87;20.13;;;;;10.00;101857.00;;;;5024868;28;20300;-72
2021/12/13 00:45:30;;;;;;;49.60;19.27;;;;;10.00;101859.00;;;;5007833;28;20248;-73
2021/12/13 00:48:16;;;;;;;47.53;19.37;;;;;9.90;101853.00;;;;4989810;28;20238;-72
2021/12/13 00:51:08;;;;;;;56.73;19.73;;;;;10.00;101854.00;;;;5009659;28;20237;-73
2021/12/13 00:53:57;;;;;;;51.97;20.83;;;;;10.00;101856.00;;;;5010436;28;20294;-73
2021/12/13 00:57:05;;;;;;;43.37;19.53;;;;;10.00;101863.00;;;;4986253;28;20238;-73
2021/12/13 00:59:57;;;;;;;45.13;19.30;;;;;10.00;101869.00;;;;5002213;28;20707;-70
2021/12/13 01:02:49;;;;;;;46.87;17.90;;;;;9.90;101863.00;;;;4993845;28;20222;-73
2021/12/13 01:05:47;;;;;;;49.97;18.43;;;;;10.00;101876.00;;;;5012490;28;20729;-73
2021/12/13 01:09:21;;;;;;;48.47;19.93;;;;;10.00;101876.00;;;;5012533;28;20312;-73
2021/12/13 01:12:11;;;;;;;40.43;18.70;;;;;10.00;101864.00;;;;5009204;28;20241;-74
2021/12/13 01:15:03;;;;;;;44.23;18.60;;;;;10.00;101880.00;;;;5005317;28;20240;-73
2021/12/13 01:17:59;;;;;;;46.50;19.30;;;;;10.00;101883.00;;;;5013511;28;20305;-71
2021/12/13 01:21:00;;;;;;;39.00;18.20;;;;;9.90;101879.00;;;;5005648;28;21194;-73
2021/12/13 01:23:52;;;;;;;48.90;18.83;;;;;10.10;101876.00;;;;4985493;28;20229;-72
2021/12/13 01:26:42;;;;;;;44.37;17.80;;;;;10.00;101890.00;;;;5000092;28;20822;-71
2021/12/13 01:29:29;;;;;;;41.83;18.70;;;;;10.00;101883.00;;;;4992664;28;20238;-73
2021/12/13 01:32:18;;;;;;;43.90;17.83;;;;;9.90;101886.00;;;;4995267;28;20241;-73
2021/12/13 01:35:12;;;;;;;43.80;18.97;;;;;10.00;101897.00;;;;4995009;28;20229;-72
2021/12/13 01:38:05;;;;;;;41.63;17.90;;;;;10.00;101889.00;;;;5005294;28;20287;-72
2021/12/13 01:40:54;;;;;;;43.03;18.20;;;;;10.00;101891.00;;;;5001350;28;20237;-73
2021/12/13 01:43:44;;;;;;;42.90;18.60;;;;;10.10;101894.00;;;;5021784;28;20276;-72
2021/12/13 01:46:36;;;;;;;45.83;18.37;;;;;9.90;101899.00;;;;5009605;28;20854;-71
2021/12/13 01:49:28;;;;;;;41.73;17.67;;;;;9.90;101907.00;;;;5012055;28;20745;-73
2021/12/13 01:52:26;;;;;;;44.07;19.23;;;;;9.90;101906.00;;;;4988844;28;20242;-72
2021/12/13 01:55:17;;;;;;;48.77;19.17;;;;;9.90;101910.00;;;;5010021;28;20242;-71
2021/12/13 01:58:21;;;;;;;42.00;17.40;;;;;9.90;101907.00;;;;5002525;28;20252;-73
2021/12/13 02:01:12;;;;;;;46.77;18.50;;;;;10.00;101902.00;;;;4980812;28;20242;-73
2021/12/13 02:04:03;;;;;;;47.20;19.67;;;;;10.00;101915.00;;;;5001899;28;20231;-72
2021/12/13 02:06:52;;;;;;;50.03;18.50;;;;;10.10;101903.00;;;;5005904;28;20252;-72
2021/12/13 02:09:41;;;;;;;46.80;20.03;;;;;10.10;101913.00;;;;5015437;28;20307;-74
2021/12/13 02:12:30;;;;;;;50.67;19.80;;;;;10.00;101908.00;;;;5014575;28;20251;-73
2021/12/13 02:18:24;;;;;;;45.30;19.43;;;;;9.90;101905.00;;;;5018177;28;20243;-73
2021/12/13 02:21:18;;;;;;;43.40;18.60;;;;;9.90;101909.00;;;;5019108;28;20237;-72
2021/12/13 02:24:09;;;;;;;46.87;19.70;;;;;9.90;101919.00;;;;4997755;28;20600;-72
2021/12/13 02:26:59;;;;;;;44.13;19.00;;;;;9.90;101922.00;;;;5014427;28;20244;-72
2021/12/13 02:29:47;;;;;;;48.87;20.00;;;;;9.90;101918.00;;;;4988129;28;20236;-73
2021/12/13 02:32:35;;;;;;;42.53;18.47;;;;;9.90;101926.00;;;;4999384;28;20233;-71
2021/12/13 02:35:26;;;;;;;43.20;19.80;;;;;9.90;101923.00;;;;5017231;28;20689;-71
2021/12/13 02:38:16;;;;;;;47.60;21.57;;;;;9.90;101919.00;;;;5017862;28;20231;-72
2021/12/13 02:41:07;;;;;;;47.47;19.30;;;;;10.00;101923.00;;;;5014942;28;20222;-72
2021/12/13 02:43:58;;;;;;;46.40;20.73;;;;;9.90;101921.00;;;;5002905;28;20959;-71
2021/12/13 02:46:46;;;;;;;49.43;19.60;;;;;9.90;101921.00;;;;4993546;28;20228;-71
2021/12/13 02:49:34;;;;;;;52.67;21.57;;;;;9.80;101917.00;;;;5012246;28;20727;-72
2021/12/13 02:52:22;;;;;;;51.87;21.47;;;;;9.90;101912.00;;;;5018048;28;20897;-73
2021/12/13 02:55:14;;;;;;;54.37;21.50;;;;;9.90;101919.00;;;;5014247;28;20367;-72
2021/12/13 02:58:05;;;;;;;51.47;22.23;;;;;10.00;101923.00;;;;4995067;28;20327;-72
2021/12/13 03:00:56;;;;;;;50.87;21.50;;;;;9.90;101921.00;;;;5001915;28;20365;-72
2021/12/13 03:03:47;;;;;;;50.47;21.37;;;;;9.90;101921.00;;;;5003926;28;20707;-73
2021/12/13 03:06:39;;;;;;;51.67;20.80;;;;;9.90;101921.00;;;;5009210;28;20225;-72
2021/12/13 03:09:31;;;;;;;55.73;20.47;;;;;9.90;101923.00;;;;4999061;28;20237;-71
2021/12/13 03:12:20;;;;;;;52.17;21.53;;;;;9.80;101922.00;;;;4984836;28;20794;-73
2021/12/13 03:15:14;;;;;;;51.07;20.80;;;;;9.80;101936.00;;;;5004293;28;20260;-73
2021/12/13 03:18:08;;;;;;;52.87;21.37;;;;;9.80;101927.00;;;;5005332;28;20240;-72
2021/12/13 03:21:09;;;;;;;52.73;21.83;;;;;9.80;101928.00;;;;4999986;28;20234;-73
2021/12/13 03:24:18;;;;;;;47.47;20.47;;;;;9.70;101939.00;;;;4982643;28;20234;-73
2021/12/13 03:27:32;;;;;;;53.77;20.83;;;;;9.80;101930.00;;;;5001060;28;20233;-72
2021/12/13 03:30:23;;;;;;;52.47;20.93;;;;;9.80;101945.00;;;;4981053;28;20651;-72
2021/12/13 03:33:13;;;;;;;55.33;22.13;;;;;9.80;101937.00;;;;5009305;28;20307;-74
2021/12/13 03:36:05;;;;;;;47.77;20.20;;;;;9.80;101945.00;;;;5013381;28;20365;-73
2021/12/13 03:38:55;;;;;;;57.03;20.87;;;;;9.80;101940.00;;;;4982672;28;20700;-74
2021/12/13 03:41:45;;;;;;;45.90;20.13;;;;;9.80;101943.00;;;;5012510;28;20225;-73
2021/12/13 03:44:36;;;;;;;47.33;20.60;;;;;9.70;101921.00;;;;5010325;28;20374;-74
2021/12/13 03:47:28;;;;;;;45.07;20.47;;;;;9.70;101940.00;;;;5013179;28;20616;-74
2021/12/13 03:50:17;;;;;;;51.13;21.23;;;;;9.80;101943.00;;;;5006129;28;20311;-72
2021/12/13 03:53:09;;;;;;;45.87;19.57;;;;;9.70;101948.00;;;;4983429;28;21013;-73
2021/12/13 03:56:02;;;;;;;41.20;19.30;;;;;9.70;101929.00;;;;4991951;28;20227;-73
2021/12/13 03:58:51;;;;;;;45.33;19.67;;;;;9.70;101933.00;;;;4996880;28;20719;-73
2021/12/13 04:01:41;;;;;;;42.17;18.33;;;;;9.60;101935.00;;;;4992864;28;20237;-73
2021/12/13 04:04:33;;;;;;;45.73;19.43;;;;;9.60;101952.00;;;;5002120;28;20369;-73
2021/12/13 04:07:22;;;;;;;39.90;19.27;;;;;9.60;101936.00;;;;5003375;28;20236;-72
2021/12/13 04:10:13;;;;;;;42.37;18.70;;;;;9.70;101946.00;;;;5005446;28;20294;-71
2021/12/13 04:13:09;;;;;;;44.50;20.03;;;;;9.70;101943.00;;;;4999662;28;20265;-72
2021/12/13 04:16:05;;;;;;;41.17;18.93;;;;;9.70;101925.00;;;;4983045;28;20247;-72
2021/12/13 04:19:09;;;;;;;40.53;18.70;;;;;9.70;101931.00;;;;5001465;28;20250;-72
2021/12/13 04:22:02;;;;;;;42.87;19.43;;;;;9.70;101934.00;;;;5003208;28;20292;-73
2021/12/13 04:24:53;;;;;;;42.97;18.60;;;;;9.70;101935.00;;;;4979614;28;20238;-72
2021/12/13 04:27:42;;;;;;;37.83;18.00;;;;;9.70;101941.00;;;;5008566;28;20231;-71
2021/12/13 04:30:33;;;;;;;40.10;17.87;;;;;9.60;101942.00;;;;5011568;28;20236;-74
2021/12/13 04:33:24;;;;;;;36.00;18.00;;;;;9.60;101946.00;;;;4990490;28;21059;-73
2021/12/13 04:36:15;;;;;;;36.40;17.07;;;;;9.60;101946.00;;;;5012607;28;20231;-73
2021/12/13 04:39:07;;;;;;;33.33;16.33;;;;;9.60;101946.00;;;;4999435;28;20763;-71
2021/12/13 04:41:59;;;;;;;35.83;16.50;;;;;9.60;101958.00;;;;4983286;28;20293;-73
2021/12/13 04:44:50;;;;;;;36.63;15.63;;;;;9.60;101961.00;;;;4990201;28;20256;-73
2021/12/13 04:47:48;;;;;;;38.70;16.20;;;;;9.50;101965.00;;;;5013382;28;20744;-73
2021/12/13 04:50:38;;;;;;;29.17;15.63;;;;;9.60;101957.00;;;;5012509;28;20256;-71
2021/12/13 04:53:34;;;;;;;33.07;14.87;;;;;9.50;101960.00;;;;5005122;28;20242;-74
2021/12/13 04:56:25;;;;;;;35.07;15.80;;;;;9.40;101971.00;;;;5012167;28;20714;-73
2021/12/13 04:59:14;;;;;;;34.20;14.53;;;;;9.50;101962.00;;;;5004863;28;20387;-73
2021/12/13 05:02:04;;;;;;;32.83;14.50;;;;;9.50;101969.00;;;;5008744;28;20359;-73
2021/12/13 05:04:54;;;;;;;29.97;14.07;;;;;9.50;101973.00;;;;5013426;28;20300;-72
2021/12/13 05:07:42;;;;;;;31.83;15.20;;;;;9.50;101966.00;;;;5011014;28;20713;-72
2021/12/13 05:10:31;;;;;;;30.47;14.53;;;;;9.50;101968.00;;;;5014497;28;20243;-73
2021/12/13 05:13:22;;;;;;;34.53;14.77;;;;;9.40;101964.00;;;;5014860;28;20290;-74
2021/12/13 05:16:10;;;;;;;28.83;13.73;;;;;9.40;101971.00;;;;5007459;28;20262;-73
2021/12/13 05:18:58;;;;;;;27.97;14.00;;;;;9.40;101977.00;;;;5007160;28;20283;-74
2021/12/13 05:21:49;;;;;;;29.30;14.63;;;;;9.40;101970.00;;;;5016653;28;20410;-72
2021/12/13 05:24:43;;;;;;;27.33;13.60;;;;;9.40;101965.00;;;;5010137;28;20234;-72
2021/12/13 05:27:34;;;;;;;27.90;13.07;;;;;9.40;101968.00;;;;5013337;28;20313;-72
2021/12/13 05:30:24;;;;;;;30.13;14.00;;;;;9.50;101966.00;;;;4993132;28;20239;-74
2021/12/13 05:33:13;;;;;;;27.87;13.53;;;;;9.40;101964.00;;;;5011996;28;20720;-73
2021/12/13 05:36:02;;;;;;;28.43;13.03;;;;;9.30;101958.00;;;;5016215;28;20275;-75
2021/12/13 05:38:51;;;;;;;27.77;13.43;;;;;9.20;101959.00;;;;4984858;28;20307;-75
2021/12/13 05:41:39;;;;;;;25.63;12.40;;;;;9.20;101942.00;;;;5009502;28;21741;-73
2021/12/13 05:44:28;;;;;;;29.17;13.20;;;;;9.20;101949.00;;;;5012329;28;20732;-74
2021/12/13 05:47:22;;;;;;;24.70;12.47;;;;;9.20;101957.00;;;;4988425;28;20335;-73
2021/12/13 05:50:09;;;;;;;28.50;12.33;;;;;9.20;101966.00;;;;5008496;28;20234;-74
2021/12/13 05:53:06;;;;;;;22.97;11.57;;;;;9.20;101960.00;;;;5005845;28;20243;-74
2021/12/13 05:55:59;;;;;;;20.97;11.43;;;;;9.10;101972.00;;;;4985748;28;20326;-72
2021/12/13 05:58:49;;;;;;;24.57;11.83;;;;;9.10;101976.00;;;;4985100;28;20717;-74
2021/12/13 06:01:43;;;;;;;23.30;11.90;;;;;9.10;101981.00;;;;4985009;28;20256;-73
2021/12/13 06:04:37;;;;;;;25.87;11.83;;;;;9.10;101989.00;;;;5020537;28;20724;-73
2021/12/13 06:07:27;;;;;;;29.60;12.00;;;;;9.10;101983.00;;;;5010789;28;20377;-73
2021/12/13 06:10:16;;;;;;;25.33;11.87;;;;;9.10;101994.00;;;;5012833;28;20316;-73
2021/12/13 06:13:06;;;;;;;23.87;11.80;;;;;9.10;101989.00;;;;5013517;28;20290;-73
2021/12/13 06:15:58;;;;;;;25.93;12.07;;;;;9.10;101994.00;;;;4997630;28;20236;-73
2021/12/13 06:19:00;;;;;;;26.03;11.70;;;;;9.20;101982.00;;;;5021100;28;20236;-73
2021/12/13 06:22:02;;;;;;;26.17;11.73;;;;;9.10;101996.00;;;;5001886;28;20234;-73
2021/12/13 06:24:55;;;;;;;21.13;11.23;;;;;9.10;101978.00;;;;4984838;28;20231;-74
2021/12/13 06:27:45;;;;;;;22.77;10.27;;;;;9.10;101997.00;;;;5010377;28;20228;-74
2021/12/13 06:30:34;;;;;;;22.30;10.57;;;;;9.00;102001.00;;;;5006094;28;20313;-74
2021/12/13 06:33:20;;;;;;;21.43;10.83;;;;;8.90;101998.00;;;;5007303;28;20238;-75
2021/12/13 06:36:07;;;;;;;25.53;12.43;;;;;9.10;101988.00;;;;5007055;28;20316;-74
2021/12/13 06:38:55;;;;;;;22.80;11.77;;;;;9.10;101991.00;;;;4984506;28;20368;-74
2021/12/13 06:41:45;;;;;;;27.23;12.37;;;;;9.00;101993.00;;;;5001896;28;20243;-74
2021/12/13 06:44:37;;;;;;;21.90;11.93;;;;;9.00;101999.00;;;;5016254;28;20243;-74
2021/12/13 06:47:24;;;;;;;23.50;12.20;;;;;9.00;101996.00;;;;4998060;28;20240;-74
2021/12/13 06:50:20;;;;;;;23.37;12.07;;;;;9.10;102001.00;;;;5012862;28;20234;-73
2021/12/13 06:53:16;;;;;;;21.77;11.77;;;;;9.00;101998.00;;;;5001308;28;20387;-73
2021/12/13 06:56:21;;;;;;;22.50;10.63;;;;;9.00;102000.00;;;;4981286;28;20283;-75
2021/12/13 06:59:10;;;;;;;20.50;10.87;;;;;9.00;102002.00;;;;5004502;28;20262;-74
2021/12/13 07:02:01;;;;;;;21.73;11.27;;;;;9.00;101999.00;;;;5003368;28;20235;-73
2021/12/13 07:04:58;;;;;;;21.13;10.67;;;;;9.00;101997.00;;;;5013305;28;20227;-73
2021/12/13 07:07:54;;;;;;;18.60;10.70;;;;;9.00;102002.00;;;;4995099;28;20243;-74
2021/12/13 07:10:44;;;;;;;20.73;11.03;;;;;8.90;102000.00;;;;5015467;28;20244;-74
2021/12/13 07:13:36;;;;;;;35.97;11.63;;;;;9.00;101997.00;;;;5015390;28;20629;-73
2021/12/13 07:16:26;;;;;;;25.67;11.03;;;;;8.90;102005.00;;;;5017051;28;20246;-73
2021/12/13 07:19:18;;;;;;;23.10;10.23;;;;;8.90;102005.00;;;;5000129;28;20243;-74
2021/12/13 07:22:09;;;;;;;19.33;9.50;;;;;8.90;102006.00;;;;5001581;28;20730;-75
2021/12/13 07:25:08;;;;;;;20.13;10.07;;;;;8.90;101975.00;;;;4984887;28;20276;-74
2021/12/13 07:27:54;;;;;;;21.17;10.37;;;;;8.90;102031.00;;;;4998914;28;20739;-74
2021/12/13 07:30:44;;;;;;;18.33;10.37;;;;;8.80;102015.00;;;;4992309;28;20688;-73
2021/12/13 07:33:37;;;;;;;19.97;11.10;;;;;8.90;102026.00;;;;5003116;28;20232;-75
2021/12/13 07:36:26;;;;;;;26.10;10.97;;;;;8.90;102027.00;;;;4989880;28;20608;-72
2021/12/13 07:39:15;;;;;;;21.70;10.50;;;;;8.90;102029.00;;;;5001199;28;20658;-74
2021/12/13 07:42:06;;;;;;;18.83;10.13;;;;;9.00;102030.00;;;;4987201;28;20238;-73
2021/12/13 07:44:52;;;;;;;20.80;11.07;;;;;8.90;102027.00;;;;5000387;28;20733;-73
2021/12/13 07:47:41;;;;;;;22.43;11.60;;;;;8.90;102036.00;;;;4993094;28;20243;-72
2021/12/13 07:50:27;;;;;;;22.23;10.47;;;;;8.90;102037.00;;;;4990227;28;20436;-73
2021/12/13 07:53:17;;;;;;;19.63;10.07;;;;;8.90;102047.00;;;;4975638;28;20245;-73
2021/12/13 07:56:05;;;;;;;19.97;10.60;;;;;8.90;102045.00;;;;5005907;28;20260;-73
2021/12/13 07:59:04;;;;;;;18.27;10.47;;;;;9.00;102045.00;;;;4983343;28;20606;-73
2021/12/13 08:01:54;;;;;;;17.23;9.60;;;;;8.90;102041.00;;;;4979437;28;20319;-72
2021/12/13 08:04:50;;;;;;;22.20;10.77;;;;;8.90;102054.00;;;;4990308;28;20252;-71
2021/12/13 08:07:43;;;;;;;22.13;10.23;;;;;9.00;102064.00;;;;5019939;28;20226;-72
2021/12/13 08:10:35;;;;;;;18.07;10.03;;;;;9.00;102062.00;;;;5009923;28;20339;-72
2021/12/13 08:13:24;;;;;;;18.13;10.23;;;;;9.00;102068.00;;;;5011319;28;20290;-73
2021/12/13 08:16:11;;;;;;;18.10;10.63;;;;;9.00;102064.00;;;;4998653;28;20244;-74
2021/12/13 08:19:07;;;;;;;16.53;10.00;;;;;9.00;102066.00;;;;4979563;28;20272;-73
2021/12/13 08:21:59;;;;;;;17.30;9.63;;;;;9.00;102068.00;;;;5007003;28;20232;-73
2021/12/13 08:24:49;;;;;;;18.60;10.33;;;;;9.00;102073.00;;;;4987015;28;20239;-72
2021/12/13 08:27:39;;;;;;;18.40;9.17;;;;;9.00;102073.00;;;;5012508;28;20733;-72
2021/12/13 08:30:30;;;;;;;19.77;9.73;;;;;9.00;102086.00;;;;4994862;28;20240;-71
2021/12/13 08:33:20;;;;;;;21.67;10.10;;;;;9.00;102089.00;;;;5004959;28;20239;-72
2021/12/13 08:36:09;;;;;;;22.27;10.37;;;;;9.00;102081.00;;;;5002507;28;20334;-72
2021/12/13 08:39:07;;;;;;;23.23;10.20;;;;;9.00;102083.00;;;;5002874;28;20241;-72
2021/12/13 08:41:58;;;;;;;22.37;10.33;;;;;9.00;102090.00;;;;4984086;28;20277;-72
2021/12/13 08:44:46;;;;;;;20.70;9.80;;;;;9.00;102086.00;;;;4994547;28;20282;-73
2021/12/13 08:47:38;;;;;;;16.57;9.47;;;;;9.10;102080.00;;;;4989470;28;20709;-72
2021/12/13 08:50:28;;;;;;;15.90;9.77;;;;;9.00;102085.00;;;;5006418;28;20847;-74
2021/12/13 08:53:24;;;;;;;16.20;9.20;;;;;9.00;102080.00;;;;5003798;28;20240;-72
2021/12/13 08:56:20;;;;;;;18.03;9.63;;;;;9.00;102078.00;;;;5010587;28;20381;-71
2021/12/13 08:59:12;;;;;;;16.83;9.40;;;;;9.00;102083.00;;;;5005670;28;20310;-69
2021/12/13 09:02:05;;;;;;;16.23;9.33;;;;;9.00;102080.00;;;;5008590;28;20235;-73
2021/12/13 09:04:56;;;;;;;15.17;8.90;;;;;9.10;102087.00;;;;5010406;28;20309;-73
2021/12/13 09:07:49;;;;;;;14.73;8.40;;;;;9.10;102085.00;;;;5007119;28;20723;-71
2021/12/13 09:10:42;;;;;;;15.20;9.27;;;;;9.10;102080.00;;;;5015513;28;20246;-70
2021/12/13 09:13:40;;;;;;;17.93;8.93;;;;;9.10;102075.00;;;;5015249;28;20238;-72
2021/12/13 09:16:43;;;;;;;15.40;8.83;;;;;9.10;102079.00;;;;5004409;28;20886;-71
2021/12/13 09:19:33;;;;;;;14.33;8.30;;;;;9.10;102088.00;;;;5000348;28;20322;-70
2021/12/13 09:22:24;;;;;;;16.63;9.53;;;;;9.20;102083.00;;;;4994828;28;20239;-69
2021/12/13 09:25:13;;;;;;;19.07;9.47;;;;;9.20;102091.00;;;;5000022;28;20225;-70
2021/12/13 09:28:03;;;;;;;15.03;8.43;;;;;9.20;102084.00;;;;4998301;28;20286;-71
2021/12/13 09:30:55;;;;;;;17.43;9.50;;;;;9.20;102088.00;;;;5003228;28;20233;-72
2021/12/13 09:33:44;;;;;;;14.57;8.37;;;;;9.20;102098.00;;;;5018348;28;20224;-73
2021/12/13 09:36:33;;;;;;;17.40;9.40;;;;;9.20;102106.00;;;;5024765;28;20246;-70
2021/12/13 09:39:24;;;;;;;18.67;8.70;;;;;9.20;102108.00;;;;5012359;28;20783;-72
2021/12/13 09:42:13;;;;;;;16.73;9.93;;;;;9.20;102109.00;;;;5013670;28;20234;-72
2021/12/13 09:45:07;;;;;;;18.60;9.17;;;;;9.30;102106.00;;;;5001082;28;20239;-71
2021/12/13 09:47:56;;;;;;;18.73;8.83;;;;;9.30;102128.00;;;;5005351;28;20234;-70
2021/12/13 09:50:45;;;;;;;17.23;9.10;;;;;9.30;102130.00;;;;4984424;28;20228;-73
2021/12/13 09:53:35;;;;;;;19.43;9.50;;;;;9.30;102120.00;;;;4978465;28;20231;-71
2021/12/13 09:56:25;;;;;;;17.93;9.93;;;;;9.30;102125.00;;;;4989657;28;20248;-72
2021/12/13 09:59:16;;;;;;;15.40;9.27;;;;;9.30;102117.00;;;;4979319;28;20234;-71
2021/12/13 10:02:07;;;;;;;16.93;9.47;;;;;9.30;102121.00;;;;4977678;28;20626;-72
2021/12/13 10:04:55;;;;;;;19.20;9.93;;;;;9.40;102121.00;;;;4979531;28;21062;-72
2021/12/13 10:07:45;;;;;;;20.33;10.27;;;;;9.40;102114.00;;;;4979523;28;20230;-71
2021/12/13 10:10:36;;;;;;;14.97;9.13;;;;;9.60;102109.00;;;;4982039;28;20254;-72
2021/12/13 10:13:27;;;;;;;15.20;8.43;;;;;9.50;102115.00;;;;4987348;28;20242;-71
2021/12/13 10:16:17;;;;;;;19.37;10.17;;;;;9.50;102116.00;;;;4999284;28;20240;-72
2021/12/13 10:19:10;;;;;;;19.50;10.37;;;;;9.50;102115.00;;;;5007180;28;20283;-72
2021/12/13 10:21:58;;;;;;;14.93;9.27;;;;;9.50;102116.00;;;;5010404;28;20235;-72
2021/12/13 10:24:50;;;;;;;15.07;8.60;;;;;9.60;102117.00;;;;4997936;28;20231;-71
2021/12/13 10:27:36;;;;;;;14.03;8.70;;;;;9.60;102116.00;;;;4997244;28;20231;-72
2021/12/13 10:30:27;;;;;;;15.47;8.80;;;;;9.60;102117.00;;;;4998086;28;20237;-72
2021/12/13 10:33:15;;;;;;;14.80;8.43;;;;;9.60;102117.00;;;;4995522;28;20300;-72
2021/12/13 10:36:03;;;;;;;18.07;8.97;;;;;9.60;102129.00;;;;4989955;28;20235;-70
2021/12/13 10:38:54;;;;;;;19.87;8.73;;;;;9.60;102119.00;;;;4993296;28;20365;-72
2021/12/13 10:41:45;;;;;;;15.43;8.50;;;;;9.60;102115.00;;;;4990876;28;20235;-71
2021/12/13 10:44:35;;;;;;;14.93;8.03;;;;;9.60;102119.00;;;;4992722;28;20240;-71
2021/12/13 10:47:24;;;;;;;13.17;7.93;;;;;9.60;102113.00;;;;4993158;28;20237;-74
2021/12/13 10:50:15;;;;;;;11.83;7.40;;;;;9.60;102116.00;;;;4995923;28;20308;-73
2021/12/13 10:53:02;;;;;;;16.07;7.77;;;;;9.60;102119.00;;;;4988201;28;20710;-73
2021/12/13 10:55:58;;;;;;;12.73;7.47;;;;;9.60;102115.00;;;;4998708;28;20303;-73
2021/12/13 10:58:49;;;;;;;13.40;7.33;;;;;9.60;102109.00;;;;4976398;28;20282;-73
2021/12/13 11:01:40;;;;;;;20.00;8.33;;;;;9.60;102100.00;;;;4977079;28;20765;-71
2021/12/13 11:04:30;;;;;;;14.77;7.67;;;;;9.60;102101.00;;;;4998953;28;20369;-72
2021/12/13 11:07:17;;;;;;;12.57;7.27;;;;;9.70;102107.00;;;;4996696;28;20292;-72
2021/12/13 11:10:07;;;;;;;16.53;7.73;;;;;9.70;102115.00;;;;4989111;28;20241;-73
2021/12/13 11:13:00;;;;;;;16.10;7.10;;;;;9.80;102109.00;;;;5000605;28;20228;-72
2021/12/13 11:15:49;;;;;;;15.13;8.10;;;;;9.80;102091.00;;;;4986787;28;20603;-72
2021/12/13 11:18:36;;;;;;;13.13;7.13;;;;;9.80;102105.00;;;;5013727;28;21000;-72
2021/12/13 11:21:27;;;;;;;13.17;7.67;;;;;9.80;102113.00;;;;5002569;28;20797;-72
2021/12/13 11:24:19;;;;;;;19.80;7.70;;;;;9.90;102115.00;;;;5010572;28;20363;-72
2021/12/13 11:27:10;;;;;;;15.23;7.67;;;;;9.90;102110.00;;;;5013832;28;20261;-72
2021/12/13 11:30:00;;;;;;;13.60;6.70;;;;;9.90;102119.00;;;;4999423;28;20235;-72
2021/12/13 11:33:50;;;;;;;16.43;7.30;;;;;9.80;102109.00;;;;4983737;28;20232;-72
2021/12/13 11:37:13;;;;;;;17.37;7.27;;;;;9.80;102103.00;;;;4989706;28;20247;-72
2021/12/13 11:40:20;;;;;;;12.17;7.03;;;;;9.80;102118.00;;;;5000498;28;20305;-72
2021/12/13 11:43:40;;;;;;;13.60;6.97;;;;;9.80;102129.00;;;;5013337;28;20239;-72
2021/12/13 11:46:53;;;;;;;12.77;7.20;;;;;9.90;102115.00;;;;5015598;28;20627;-72
2021/12/13 11:49:52;;;;;;;13.87;6.77;;;;;10.00;102107.00;;;;5005199;28;20311;-72
2021/12/13 11:53:12;;;;;;;12.47;7.20;;;;;9.90;102104.00;;;;4997558;28;20221;-72
2021/12/13 11:56:15;;;;;;;10.17;6.40;;;;;9.90;102109.00;;;;5000832;28;20285;-72
2021/12/13 11:59:14;;;;;;;12.77;6.77;;;;;9.90;102097.00;;;;5003852;28;20386;-73
2021/12/13 12:02:08;;;;;;;11.67;6.60;;;;;9.90;102105.00;;;;5013503;28;20224;-73
2021/12/13 12:05:23;;;;;;;12.73;6.77;;;;;10.00;102090.00;;;;5004078;28;20227;-72
2021/12/13 12:08:48;;;;;;;15.30;7.50;;;;;10.00;102101.00;;;;5008915;28;20361;-72
2021/12/13 12:11:59;;;;;;;13.97;7.63;;;;;10.00;102102.00;;;;5005741;28;20272;-72
2021/12/13 12:14:48;;;;;;;13.10;7.17;;;;;10.00;102102.00;;;;5005256;28;20224;-73
2021/12/13 12:17:35;;;;;;;14.93;7.27;;;;;10.00;102085.00;;;;5009942;28;20264;-72
2021/12/13 12:20:27;;;;;;;12.97;7.17;;;;;10.00;102100.00;;;;5010057;28;20244;-73
2021/12/13 12:23:26;;;;;;;14.17;8.03;;;;;10.10;102096.00;;;;5009200;28;20243;-73
2021/12/13 12:26:15;;;;;;;12.03;7.37;;;;;10.00;102076.00;;;;5005737;28;20304;-72
2021/12/13 12:29:09;;;;;;;15.50;7.90;;;;;10.00;102091.00;;;;5003784;28;20296;-72
2021/12/13 12:32:05;;;;;;;17.17;7.97;;;;;10.00;102090.00;;;;5003258;28;20290;-73
2021/12/13 12:34:55;;;;;;;13.47;7.70;;;;;10.00;102092.00;;;;5002588;28;20786;-71
2021/12/13 12:38:14;;;;;;;14.43;7.60;;;;;10.00;102096.00;;;;5011490;28;20248;-71
2021/12/13 12:41:44;;;;;;;13.17;7.27;;;;;10.00;102067.00;;;;5002960;28;20233;-72
2021/12/13 12:45:05;;;;;;;15.00;7.37;;;;;9.90;102101.00;;;;4986735;28;20277;-71
2021/12/13 12:48:16;;;;;;;15.17;7.83;;;;;10.00;102107.00;;;;4985920;28;20259;-71
2021/12/13 12:51:07;;;;;;;14.83;7.60;;;;;10.00;102118.00;;;;5002966;28;20237;-72
2021/12/13 12:53:59;;;;;;;12.80;7.47;;;;;9.90;102115.00;;;;4987140;28;20297;-74
2021/12/13 12:56:49;;;;;;;16.50;7.93;;;;;10.00;102117.00;;;;4986802;28;20227;-72
2021/12/13 12:59:39;;;;;;;15.43;8.13;;;;;10.00;102109.00;;;;4988838;28;20287;-73
2021/12/13 13:02:33;;;;;;;14.10;8.37;;;;;10.10;102094.00;;;;4993209;28;20371;-73
2021/12/13 13:05:21;;;;;;;15.80;7.70;;;;;10.10;102095.00;;;;5002944;28;20236;-72
2021/12/13 13:08:08;;;;;;;12.13;7.87;;;;;10.10;102099.00;;;;5018125;28;20290;-72
2021/12/13 13:11:20;;;;;;;16.00;8.07;;;;;10.10;102088.00;;;;5007711;28;20300;-72
2021/12/13 13:14:12;;;;;;;19.57;8.57;;;;;10.00;102092.00;;;;5013326;28;20234;-72
2021/12/13 13:17:01;;;;;;;13.90;7.60;;;;;10.00;102084.00;;;;5001619;28;20324;-72
2021/12/13 13:19:50;;;;;;;15.27;8.07;;;;;10.10;102065.00;;;;5000858;28;20728;-72
2021/12/13 13:22:39;;;;;;;15.10;8.10;;;;;10.00;102077.00;;;;5004625;28;20629;-73
2021/12/13 13:25:48;;;;;;;11.30;7.30;;;;;10.10;102073.00;;;;4986180;28;20230;-72
2021/12/13 13:28:38;;;;;;;14.07;7.67;;;;;10.00;102079.00;;;;5000307;28;20361;-71
2021/12/13 13:31:28;;;;;;;11.33;7.53;;;;;10.00;102078.00;;;;4984097;28;20234;-72
2021/12/13 13:34:18;;;;;;;11.23;6.90;;;;;10.00;102078.00;;;;4985784;28;20266;-71
2021/12/13 13:37:12;;;;;;;10.13;6.90;;;;;10.00;102088.00;;;;4987837;28;20765;-71
2021/12/13 13:40:00;;;;;;;13.60;6.60;;;;;10.00;102072.00;;;;5003682;28;20236;-72
2021/12/13 13:42:49;;;;;;;9.23;6.40;;;;;10.10;102075.00;;;;5010699;28;20241;-72
2021/12/13 13:45:38;;;;;;;11.50;5.83;;;;;10.10;102071.00;;;;5004489;28;20731;-70
2021/12/13 13:48:28;;;;;;;12.40;6.37;;;;;10.10;102080.00;;;;5024041;28;20285;-70
2021/12/13 13:51:18;;;;;;;9.90;6.20;;;;;10.00;102076.00;;;;4990247;28;20238;-72
2021/12/13 13:54:07;;;;;;;8.50;5.33;;;;;10.00;102086.00;;;;4981635;28;20266;-72
2021/12/13 13:56:54;;;;;;;9.10;5.13;;;;;10.10;102085.00;;;;5001855;28;20304;-72
2021/12/13 13:59:43;;;;;;;8.77;5.07;;;;;10.00;102073.00;;;;4992493;28;20597;-71
2021/12/13 14:02:34;;;;;;;8.63;5.27;;;;;10.10;102077.00;;;;4988068;28;20766;-71
2021/12/13 14:05:21;;;;;;;7.67;4.77;;;;;10.00;102067.00;;;;4985431;28;20234;-72
2021/12/13 14:08:18;;;;;;;7.10;4.77;;;;;10.00;102085.00;;;;5007926;28;20794;-72
2021/12/13 14:11:12;;;;;;;7.00;4.93;;;;;10.00;102080.00;;;;4989341;28;20710;-72